createdAt,value
2023-05-18T00:01:43.583Z,35.92
2023-05-18T00:04:10.144Z,36.01
2023-05-18T00:06:37.164Z,35.99
2023-05-18T00:09:03.578Z,36.15
2023-05-18T00:11:29.963Z,35.94
2023-05-18T00:13:56.572Z,36.08
2023-05-18T00:16:23.122Z,36.05
2023-05-18T00:18:49.498Z,36.07
2023-05-18T00:21:16.269Z,36.04
2023-05-18T00:23:49.382Z,35.95
2023-05-18T00:26:15.883Z,35.90
2023-05-18T00:28:42.271Z,35.92
2023-05-18T00:31:08.687Z,36.04
2023-05-18T00:33:35.065Z,35.88
2023-05-18T00:36:01.426Z,35.99
2023-05-18T00:38:27.777Z,35.89
2023-05-18T00:40:54.171Z,35.76
2023-05-18T00:43:20.739Z,35.85
2023-05-18T00:45:47.161Z,35.78
2023-05-18T00:48:13.609Z,35.85
2023-05-18T00:50:40.096Z,35.87
2023-05-18T00:53:06.470Z,36.02
2023-05-18T00:55:33.050Z,36.00
2023-05-18T00:58:02.260Z,35.89
2023-05-18T01:00:28.876Z,36.04
2023-05-18T01:02:55.532Z,36.15
2023-05-18T01:05:22.298Z,36.14
2023-05-18T01:07:48.823Z,36.13
2023-05-18T01:10:16.472Z,36.08
2023-05-18T01:12:48.732Z,36.00
2023-05-18T01:15:16.049Z,35.99
2023-05-18T01:18:00.764Z,36.03
2023-05-18T01:20:46.122Z,35.79
2023-05-18T01:23:15.473Z,35.85
2023-05-18T01:25:54.064Z,35.84
2023-05-18T01:28:21.068Z,35.51
2023-05-18T01:30:47.501Z,35.46
2023-05-18T01:33:14.320Z,35.65
2023-05-18T01:35:48.389Z,35.53
2023-05-18T01:38:16.256Z,35.51
2023-05-18T01:41:02.910Z,35.41
2023-05-18T01:43:33.280Z,35.47
2023-05-18T01:46:02.024Z,35.42
2023-05-18T01:48:28.419Z,35.42
2023-05-18T01:50:56.285Z,35.27
2023-05-18T01:53:28.013Z,35.25
2023-05-18T01:55:54.370Z,35.33
2023-05-18T01:58:20.723Z,35.42
2023-05-18T02:00:47.101Z,35.44
2023-05-18T02:03:14.035Z,35.36
2023-05-18T02:05:40.546Z,35.35
2023-05-18T02:08:06.961Z,35.44
2023-05-18T02:10:33.332Z,35.48
2023-05-18T02:12:59.758Z,35.28
2023-05-18T02:15:26.121Z,35.15
2023-05-18T02:17:52.518Z,35.11
2023-05-18T02:20:18.950Z,34.97
2023-05-18T02:22:46.330Z,34.89
2023-05-18T02:25:12.753Z,35.03
2023-05-18T02:27:39.195Z,34.86
2023-05-18T02:30:06.673Z,34.90
2023-05-18T02:32:33.113Z,34.94
2023-05-18T02:35:02.371Z,34.83
2023-05-18T02:37:28.833Z,34.91
2023-05-18T02:39:55.429Z,34.88
2023-05-18T02:42:21.926Z,34.77
2023-05-18T02:44:48.284Z,34.86
2023-05-18T02:47:14.665Z,34.70
2023-05-18T02:49:41.141Z,34.64
2023-05-18T02:52:07.789Z,34.85
2023-05-18T02:54:34.205Z,34.88
2023-05-18T02:57:02.299Z,34.80
2023-05-18T02:59:28.665Z,34.81
2023-05-18T03:01:55.141Z,34.90
2023-05-18T03:04:21.920Z,34.91
2023-05-18T03:06:52.883Z,34.95
2023-05-18T03:09:19.991Z,34.82
2023-05-18T03:11:46.366Z,35.00
2023-05-18T03:14:12.782Z,35.06
2023-05-18T03:16:39.611Z,35.06
2023-05-18T03:19:06.232Z,35.00
2023-05-18T03:21:36.073Z,35.04
2023-05-18T03:24:02.747Z,35.25
2023-05-18T03:26:32.101Z,35.05
2023-05-18T03:28:58.544Z,34.95
2023-05-18T03:31:25.271Z,35.11
2023-05-18T03:33:51.741Z,34.99
2023-05-18T03:36:18.105Z,34.96
2023-05-18T03:38:47.426Z,34.81
2023-05-18T03:41:14.197Z,34.97
2023-05-18T03:43:40.662Z,34.67
2023-05-18T03:46:07.041Z,34.80
2023-05-18T03:48:33.492Z,34.90
2023-05-18T03:50:59.846Z,35.02
2023-05-18T03:53:26.281Z,34.89
2023-05-18T03:55:52.647Z,34.94
2023-05-18T03:58:22.450Z,34.88
2023-05-18T04:00:51.000Z,34.84
2023-05-18T04:03:17.433Z,34.98
2023-05-18T04:05:44.348Z,34.85
2023-05-18T04:08:14.212Z,34.96
2023-05-18T04:10:43.568Z,34.80
2023-05-18T04:13:09.944Z,34.90
2023-05-18T04:15:36.473Z,34.88
2023-05-18T04:18:02.888Z,34.87
2023-05-18T04:20:29.711Z,34.84
2023-05-18T04:22:57.360Z,34.74
2023-05-18T04:25:30.296Z,34.76
2023-05-18T04:27:56.905Z,34.82
2023-05-18T04:30:23.445Z,34.45
2023-05-18T04:32:50.090Z,34.56
2023-05-18T04:35:16.744Z,34.53
2023-05-18T04:37:43.213Z,34.43
2023-05-18T04:40:17.234Z,34.46
2023-05-18T04:42:47.978Z,34.24
2023-05-18T04:45:15.897Z,34.45
2023-05-18T04:47:42.596Z,34.23
2023-05-18T04:50:09.089Z,34.33
2023-05-18T04:52:36.890Z,34.32
2023-05-18T04:55:03.470Z,34.19
2023-05-18T04:57:29.873Z,34.39
2023-05-18T04:59:56.238Z,34.24
2023-05-18T05:02:22.709Z,34.22
2023-05-18T05:04:49.239Z,34.26
2023-05-18T05:07:15.621Z,34.38
2023-05-18T05:09:42.035Z,34.18
2023-05-18T05:12:08.585Z,34.13
2023-05-18T05:14:34.950Z,34.34
2023-05-18T05:17:01.328Z,34.45
2023-05-18T05:19:27.715Z,34.30
2023-05-18T05:21:54.113Z,34.19
2023-05-18T05:24:20.477Z,34.29
2023-05-18T05:26:46.852Z,34.10
2023-05-18T05:29:13.239Z,34.15
2023-05-18T05:31:39.698Z,34.17
2023-05-18T05:34:06.266Z,34.04
2023-05-18T05:36:33.816Z,33.82
2023-05-18T05:39:00.456Z,34.03
2023-05-18T05:41:27.009Z,34.04
2023-05-18T05:43:53.436Z,34.04
2023-05-18T05:46:19.908Z,34.02
2023-05-18T05:48:46.279Z,33.98
2023-05-18T05:51:12.716Z,33.78
2023-05-18T05:53:39.120Z,33.72
2023-05-18T05:56:07.839Z,33.84
2023-05-18T05:58:34.250Z,33.89
2023-05-18T06:01:01.252Z,33.80
2023-05-18T06:03:29.360Z,33.71
2023-05-18T06:05:56.388Z,33.70
2023-05-18T06:08:24.341Z,33.64
2023-05-18T06:10:51.234Z,33.55
2023-05-18T06:13:17.607Z,33.54
2023-05-18T06:15:43.982Z,33.70
2023-05-18T06:18:12.194Z,33.67
2023-05-18T06:20:39.889Z,33.46
2023-05-18T06:23:06.255Z,33.33
2023-05-18T06:25:32.864Z,33.50
2023-05-18T06:27:59.428Z,33.46
2023-05-18T06:30:25.791Z,33.57
2023-05-18T06:32:52.268Z,33.71
2023-05-18T06:35:18.669Z,33.50
2023-05-18T06:37:46.929Z,33.64
2023-05-18T06:40:13.719Z,33.52
2023-05-18T06:42:40.083Z,33.65
2023-05-18T06:45:06.762Z,33.86
2023-05-18T06:47:33.205Z,33.65
2023-05-18T06:49:59.592Z,33.60
2023-05-18T06:52:27.146Z,33.53
2023-05-18T06:54:53.712Z,33.77
2023-05-18T06:57:20.085Z,33.81
2023-05-18T06:59:50.464Z,33.84
2023-05-18T07:02:16.902Z,34.48
2023-05-18T07:04:43.276Z,34.15
2023-05-18T07:07:09.649Z,34.23
2023-05-18T07:09:37.036Z,34.39
2023-05-18T07:12:03.452Z,34.28
2023-05-18T07:14:29.822Z,33.62
2023-05-18T07:16:56.181Z,33.38
2023-05-18T07:19:22.773Z,33.43
2023-05-18T07:21:49.356Z,33.24
2023-05-18T07:24:16.006Z,33.32
2023-05-18T07:26:42.462Z,33.40
2023-05-18T07:29:08.929Z,30.42
2023-05-18T07:31:38.990Z,31.21
2023-05-18T07:34:05.640Z,31.29
2023-05-18T07:36:32.080Z,31.40
2023-05-18T07:38:59.156Z,31.84
2023-05-18T07:41:26.167Z,32.06
2023-05-18T07:43:52.654Z,31.50
2023-05-18T07:46:19.149Z,30.23
2023-05-18T07:48:46.236Z,29.80
2023-05-18T07:51:12.621Z,30.04
2023-05-18T07:53:39.515Z,30.52
2023-05-18T07:56:05.914Z,30.78
2023-05-18T07:58:32.278Z,30.86
2023-05-18T08:00:58.675Z,31.00
2023-05-18T08:03:25.138Z,30.97
2023-05-18T08:05:51.580Z,30.90
2023-05-18T08:08:18.717Z,30.45
2023-05-18T08:10:45.132Z,30.85
2023-05-18T08:13:11.747Z,33.87
2023-05-18T08:15:39.036Z,32.77
2023-05-18T08:18:05.514Z,33.00
2023-05-18T08:20:32.344Z,32.48
2023-05-18T08:22:58.748Z,32.02
2023-05-18T08:25:25.132Z,32.53
2023-05-18T08:27:51.490Z,32.26
2023-05-18T08:30:21.397Z,32.97
2023-05-18T08:32:48.105Z,32.08
2023-05-18T08:35:14.498Z,31.42
2023-05-18T08:37:40.950Z,31.25
2023-05-18T08:40:08.084Z,31.09
2023-05-18T08:42:48.559Z,30.75
2023-05-18T08:45:23.931Z,30.67
2023-05-18T08:47:50.394Z,30.51
2023-05-18T08:50:18.114Z,30.58
2023-05-18T08:52:47.026Z,30.46
2023-05-18T08:55:13.630Z,30.56
2023-05-18T08:57:40.028Z,30.44
2023-05-18T09:00:07.930Z,30.48
2023-05-18T09:02:34.337Z,30.39
2023-05-18T09:05:00.746Z,30.21
2023-05-18T09:07:27.968Z,30.22
2023-05-18T09:09:54.685Z,30.24
2023-05-18T09:12:24.231Z,30.11
2023-05-18T09:14:51.080Z,30.08
2023-05-18T09:17:17.452Z,30.03
2023-05-18T09:19:43.805Z,30.11
2023-05-18T09:22:10.175Z,30.19
2023-05-18T09:24:37.930Z,29.96
2023-05-18T09:27:04.881Z,30.09
2023-05-18T09:29:32.960Z,30.17
2023-05-18T09:32:04.616Z,30.11
2023-05-18T09:34:41.432Z,29.97
2023-05-18T09:37:07.932Z,30.09
2023-05-18T09:39:34.311Z,30.28
2023-05-18T09:42:00.662Z,30.69
2023-05-18T09:44:36.056Z,30.69
2023-05-18T09:47:02.791Z,30.73
2023-05-18T09:49:29.547Z,30.56
2023-05-18T09:51:56.720Z,30.30
2023-05-18T09:54:24.437Z,30.30
2023-05-18T09:57:02.331Z,30.12
2023-05-18T09:59:36.605Z,30.20
2023-05-18T10:02:05.932Z,30.30
2023-05-18T10:04:36.109Z,30.37
2023-05-18T10:07:03.211Z,30.41
2023-05-18T10:09:29.631Z,30.17
2023-05-18T10:11:56.048Z,30.28
2023-05-18T10:14:28.155Z,30.18
2023-05-18T10:17:03.505Z,30.26
2023-05-18T10:19:34.307Z,30.29
2023-05-18T10:22:01.973Z,30.53
2023-05-18T10:24:28.419Z,30.68
2023-05-18T10:26:57.100Z,30.89
2023-05-18T10:29:24.036Z,30.63
2023-05-18T10:31:50.629Z,30.72
2023-05-18T10:34:18.505Z,30.70
2023-05-18T10:36:44.861Z,30.90
2023-05-18T10:39:11.245Z,30.82
2023-05-18T10:41:37.610Z,30.83
2023-05-18T10:44:04.250Z,30.84
2023-05-18T10:46:30.899Z,30.94
2023-05-18T10:48:57.704Z,30.76
2023-05-18T10:51:24.050Z,30.70
2023-05-18T10:53:50.430Z,30.59
2023-05-18T10:56:16.842Z,30.56
2023-05-18T10:58:43.237Z,30.81
2023-05-18T11:01:09.623Z,30.52
2023-05-18T11:03:36.008Z,30.74
2023-05-18T11:06:06.795Z,30.61
2023-05-18T11:08:33.195Z,30.58
2023-05-18T11:11:07.511Z,30.52
2023-05-18T11:13:34.612Z,30.68
2023-05-18T11:16:07.737Z,30.53
2023-05-18T11:18:34.978Z,30.66
2023-05-18T11:21:01.588Z,30.82
2023-05-18T11:23:33.699Z,30.66
2023-05-18T11:26:02.990Z,30.71
2023-05-18T11:28:29.398Z,30.70
2023-05-18T11:30:55.881Z,30.79
2023-05-18T11:33:23.306Z,30.84
2023-05-18T11:35:55.910Z,30.73
2023-05-18T11:38:22.494Z,30.56
2023-05-18T11:40:49.464Z,30.47
2023-05-18T11:43:25.062Z,30.57
2023-05-18T11:45:59.135Z,30.91
2023-05-18T11:48:26.692Z,30.68
2023-05-18T11:50:53.623Z,30.64
2023-05-18T11:53:20.009Z,30.72
2023-05-18T11:55:46.638Z,30.80
2023-05-18T11:58:18.880Z,30.60
2023-05-18T12:00:45.240Z,30.66
2023-05-18T12:03:11.651Z,30.60
2023-05-18T12:05:38.047Z,30.50
2023-05-18T12:08:04.505Z,30.54
2023-05-18T12:10:31.148Z,30.75
2023-05-18T12:12:57.680Z,30.79
2023-05-18T12:15:24.273Z,30.54
2023-05-18T12:17:51.014Z,30.56
2023-05-18T12:20:21.050Z,30.78
2023-05-18T12:22:50.215Z,30.41
2023-05-18T12:25:16.664Z,30.46
2023-05-18T12:27:47.980Z,30.30
2023-05-18T12:30:20.889Z,30.49
2023-05-18T12:32:48.128Z,30.81
2023-05-18T12:35:14.533Z,30.71
2023-05-18T12:37:45.468Z,30.62
2023-05-18T12:40:16.326Z,30.82
2023-05-18T12:42:55.382Z,30.81
2023-05-18T12:45:22.689Z,30.76
2023-05-18T12:47:54.194Z,30.46
2023-05-18T12:50:21.070Z,30.49
2023-05-18T12:52:47.993Z,30.54
2023-05-18T12:55:21.894Z,30.60
2023-05-18T12:57:58.555Z,30.58
2023-05-18T13:00:24.955Z,30.54
2023-05-18T13:02:51.549Z,30.50
2023-05-18T13:05:17.985Z,30.54
2023-05-18T13:07:44.739Z,30.54
2023-05-18T13:10:11.780Z,30.42
2023-05-18T13:12:38.649Z,30.39
2023-05-18T13:15:10.063Z,30.30
2023-05-18T13:17:37.096Z,30.27
2023-05-18T13:20:04.596Z,30.36
2023-05-18T13:22:31.247Z,30.34
2023-05-18T13:24:57.623Z,30.15
2023-05-18T13:27:23.984Z,30.29
2023-05-18T13:29:51.237Z,30.26
2023-05-18T13:32:17.588Z,30.38
2023-05-18T13:34:43.947Z,30.37
2023-05-18T13:37:11.948Z,30.30
2023-05-18T13:39:38.816Z,30.59
2023-05-18T13:42:05.232Z,30.50
2023-05-18T13:44:31.623Z,30.42
2023-05-18T13:46:58.002Z,30.28
2023-05-18T13:49:24.357Z,30.49
2023-05-18T13:51:50.794Z,30.47
2023-05-18T13:54:17.153Z,30.23
2023-05-18T13:56:43.528Z,30.24
2023-05-18T13:59:09.930Z,30.36
2023-05-18T14:01:36.558Z,30.48
2023-05-18T14:04:02.959Z,30.50
2023-05-18T14:06:29.324Z,30.63
2023-05-18T14:08:55.690Z,30.48
2023-05-18T14:11:22.072Z,30.54
2023-05-18T14:13:48.428Z,30.49
2023-05-18T14:16:14.953Z,30.39
2023-05-18T14:18:41.362Z,30.31
2023-05-18T14:21:07.794Z,30.48
2023-05-18T14:23:34.147Z,30.53
2023-05-18T14:26:00.504Z,30.61
2023-05-18T14:28:26.865Z,30.53
2023-05-18T14:30:53.260Z,30.64
2023-05-18T14:33:19.647Z,30.53
2023-05-18T14:35:46.038Z,30.35
2023-05-18T14:38:12.399Z,30.48
2023-05-18T14:40:38.761Z,30.66
2023-05-18T14:43:05.133Z,30.59
2023-05-18T14:45:31.505Z,30.61
2023-05-18T14:47:57.932Z,30.61
2023-05-18T14:50:24.334Z,30.85
2023-05-18T14:52:52.126Z,30.83
2023-05-18T14:55:18.496Z,30.66
2023-05-18T14:57:44.897Z,30.84
2023-05-18T15:00:11.599Z,30.79
2023-05-18T15:02:38.122Z,30.71
2023-05-18T15:05:04.672Z,30.93
2023-05-18T15:07:31.131Z,31.02
2023-05-18T15:09:57.509Z,30.91
2023-05-18T15:12:23.887Z,30.96
2023-05-18T15:14:50.634Z,31.05
2023-05-18T15:17:17.911Z,30.95
2023-05-18T15:19:44.339Z,30.95
2023-05-18T15:22:10.694Z,31.07
2023-05-18T15:24:37.044Z,31.14
2023-05-18T15:27:03.537Z,31.13
2023-05-18T15:29:30.008Z,30.98
2023-05-18T15:31:56.437Z,31.00
2023-05-18T15:34:22.836Z,31.04
2023-05-18T15:36:49.961Z,30.92
2023-05-18T15:39:16.339Z,30.90
2023-05-18T15:41:42.703Z,30.89
2023-05-18T15:44:09.080Z,30.95
2023-05-18T15:46:35.833Z,30.78
2023-05-18T15:49:02.408Z,30.84
2023-05-18T15:51:28.789Z,30.79
2023-05-18T15:53:55.217Z,30.75
2023-05-18T15:56:21.972Z,30.97
2023-05-18T15:58:48.354Z,30.83
2023-05-18T16:01:14.749Z,30.75
2023-05-18T16:03:41.352Z,30.68
2023-05-18T16:06:07.888Z,30.82
2023-05-18T16:08:34.262Z,30.67
2023-05-18T16:11:02.207Z,30.74
2023-05-18T16:13:28.575Z,30.82
2023-05-18T16:15:54.927Z,30.82
2023-05-18T16:18:21.322Z,30.81
2023-05-18T16:20:47.693Z,30.89
2023-05-18T16:23:14.042Z,30.77
2023-05-18T16:25:40.484Z,30.82
2023-05-18T16:28:06.842Z,30.92
2023-05-18T16:30:33.410Z,30.94
2023-05-18T16:33:00.454Z,30.83
2023-05-18T16:35:27.181Z,30.90
2023-05-18T16:37:53.569Z,30.83
2023-05-18T16:40:19.988Z,30.74
2023-05-18T16:42:48.817Z,30.84
2023-05-18T16:45:15.217Z,30.61
2023-05-18T16:47:41.865Z,30.66
2023-05-18T16:50:08.516Z,30.63
2023-05-18T16:52:34.857Z,30.70
2023-05-18T16:55:01.228Z,30.64
2023-05-18T16:57:27.814Z,30.61
2023-05-18T16:59:54.212Z,30.88
2023-05-18T17:02:20.884Z,30.64
2023-05-18T17:04:49.592Z,30.95
2023-05-18T17:07:16.244Z,30.85
2023-05-18T17:09:42.940Z,30.92
2023-05-18T17:12:09.430Z,31.06
2023-05-18T17:14:35.786Z,30.83
2023-05-18T17:17:02.157Z,30.98
2023-05-18T17:19:28.587Z,30.97
2023-05-18T17:21:55.073Z,31.02
2023-05-18T17:24:21.690Z,31.06
2023-05-18T17:26:48.136Z,31.19
2023-05-18T17:29:16.898Z,31.08
2023-05-18T17:31:45.833Z,31.27
2023-05-18T17:34:12.263Z,31.13
2023-05-18T17:36:38.663Z,31.32
2023-05-18T17:39:05.067Z,31.17
2023-05-18T17:41:32.265Z,31.19
2023-05-18T17:43:58.638Z,31.16
2023-05-18T17:46:25.112Z,31.44
2023-05-18T17:48:51.607Z,31.32
2023-05-18T17:51:17.979Z,31.34
2023-05-18T17:53:44.352Z,31.27
2023-05-18T17:56:10.907Z,31.40
2023-05-18T17:58:39.183Z,31.34
2023-05-18T18:01:07.421Z,31.48
2023-05-18T18:03:34.044Z,31.41
2023-05-18T18:06:00.758Z,31.35
2023-05-18T18:08:29.193Z,31.55
2023-05-18T18:10:56.223Z,31.42
2023-05-18T18:13:22.829Z,31.46
2023-05-18T18:15:49.423Z,31.32
2023-05-18T18:18:16.840Z,31.39
2023-05-18T18:20:43.293Z,31.48
2023-05-18T18:23:09.834Z,31.48
2023-05-18T18:25:36.210Z,31.57
2023-05-18T18:28:02.574Z,31.57
2023-05-18T18:30:29.048Z,31.62
2023-05-18T18:32:55.545Z,31.55
2023-05-18T18:35:21.927Z,31.48
2023-05-18T18:37:48.349Z,31.49
2023-05-18T18:40:14.922Z,31.54
2023-05-18T18:42:41.352Z,31.76
2023-05-18T18:45:07.899Z,31.63
2023-05-18T18:47:34.303Z,31.51
2023-05-18T18:50:00.783Z,31.67
2023-05-18T18:52:27.136Z,31.64
2023-05-18T18:54:53.808Z,31.68
2023-05-18T18:57:21.879Z,31.59
2023-05-18T18:59:48.281Z,31.68
2023-05-18T19:02:15.309Z,31.75
2023-05-18T19:04:41.814Z,31.50
2023-05-18T19:07:08.295Z,31.70
2023-05-18T19:09:36.094Z,31.52
2023-05-18T19:12:02.627Z,31.75
2023-05-18T19:14:29.020Z,31.68
2023-05-18T19:16:56.084Z,31.61
2023-05-18T19:19:22.607Z,31.97
2023-05-18T19:21:49.119Z,31.69
2023-05-18T19:24:15.494Z,31.97
2023-05-18T19:26:41.882Z,31.83
2023-05-18T19:29:08.234Z,31.75
2023-05-18T19:31:35.870Z,31.90
2023-05-18T19:34:02.397Z,31.83
2023-05-18T19:36:28.756Z,32.03
2023-05-18T19:38:55.788Z,32.13
2023-05-18T19:41:24.422Z,32.05
2023-05-18T19:43:51.055Z,32.02
2023-05-18T19:46:17.491Z,32.23
2023-05-18T19:48:43.898Z,32.08
2023-05-18T19:51:10.754Z,31.95
2023-05-18T19:53:37.196Z,31.96
2023-05-18T19:56:03.574Z,31.94
2023-05-18T19:58:29.933Z,32.07
2023-05-18T20:00:57.361Z,32.19
2023-05-18T20:03:23.759Z,32.16
2023-05-18T20:05:50.166Z,32.24
2023-05-18T20:08:16.610Z,32.35
2023-05-18T20:10:44.397Z,32.25
2023-05-18T20:13:10.992Z,32.14
2023-05-18T20:15:37.362Z,32.36
2023-05-18T20:18:06.488Z,32.23
2023-05-18T20:20:35.524Z,32.39
2023-05-18T20:23:02.005Z,32.35
2023-05-18T20:25:28.375Z,32.33
2023-05-18T20:27:56.679Z,32.31
2023-05-18T20:30:23.113Z,32.33
2023-05-18T20:32:49.922Z,32.35
2023-05-18T20:35:16.988Z,32.53
2023-05-18T20:37:43.950Z,32.33
2023-05-18T20:40:10.357Z,32.24
2023-05-18T20:42:40.464Z,32.24
2023-05-18T20:45:07.461Z,32.36
2023-05-18T20:47:34.444Z,32.37
2023-05-18T20:50:02.099Z,32.37
2023-05-18T20:52:28.575Z,32.58
2023-05-18T20:54:55.129Z,32.51
2023-05-18T20:57:21.512Z,32.72
2023-05-18T20:59:47.947Z,32.61
2023-05-18T21:02:14.307Z,32.97
2023-05-18T21:04:40.664Z,32.98
2023-05-18T21:07:07.034Z,33.12
2023-05-18T21:09:34.437Z,32.77
2023-05-18T21:12:00.794Z,32.53
2023-05-18T21:14:27.435Z,32.50
2023-05-18T21:16:53.805Z,32.67
2023-05-18T21:19:20.471Z,32.48
2023-05-18T21:21:47.080Z,32.49
2023-05-18T21:24:13.485Z,32.62
2023-05-18T21:26:41.047Z,32.75
2023-05-18T21:29:09.792Z,32.86
2023-05-18T21:31:36.223Z,33.14
2023-05-18T21:34:02.634Z,33.29
2023-05-18T21:36:34.830Z,33.19
2023-05-18T21:39:01.741Z,33.29
2023-05-18T21:41:28.169Z,33.37
2023-05-18T21:43:54.577Z,33.47
2023-05-18T21:46:21.086Z,33.41
2023-05-18T21:48:47.533Z,33.41
2023-05-18T21:51:13.999Z,33.44
2023-05-18T21:53:40.559Z,33.46
2023-05-18T21:56:06.914Z,33.24
2023-05-18T21:58:33.279Z,33.57
2023-05-18T22:00:59.680Z,33.41
2023-05-18T22:03:26.118Z,33.53
2023-05-18T22:05:52.692Z,33.53
2023-05-18T22:08:20.009Z,33.63
2023-05-18T22:10:46.550Z,33.58
2023-05-18T22:13:12.957Z,33.70
2023-05-18T22:15:40.259Z,33.44
2023-05-18T22:18:06.852Z,33.76
2023-05-18T22:20:33.925Z,33.59
2023-05-18T22:23:00.568Z,33.77
2023-05-18T22:25:26.943Z,33.81
2023-05-18T22:27:53.380Z,33.87
2023-05-18T22:30:27.772Z,33.78
2023-05-18T22:32:54.423Z,33.80
2023-05-18T22:35:20.950Z,33.85
2023-05-18T22:37:47.597Z,33.76
2023-05-18T22:40:13.974Z,33.85
2023-05-18T22:42:40.746Z,33.78
2023-05-18T22:45:07.429Z,33.64
2023-05-18T22:47:33.969Z,33.65
2023-05-18T22:50:00.426Z,33.76
2023-05-18T22:52:27.902Z,33.78
2023-05-18T22:54:54.271Z,33.76
2023-05-18T22:57:20.624Z,33.78
2023-05-18T22:59:46.974Z,33.88
2023-05-18T23:02:13.706Z,33.91
2023-05-18T23:04:40.216Z,33.99
2023-05-18T23:07:07.295Z,34.04
2023-05-18T23:09:33.797Z,33.93
2023-05-18T23:12:01.007Z,33.84
2023-05-18T23:14:31.067Z,33.84
2023-05-18T23:16:58.421Z,33.78
2023-05-18T23:19:26.591Z,33.96
2023-05-18T23:21:53.172Z,33.75
2023-05-18T23:24:19.528Z,33.99
2023-05-18T23:26:46.029Z,34.08
2023-05-18T23:29:12.695Z,33.90
2023-05-18T23:31:39.083Z,33.85
2023-05-18T23:34:05.640Z,33.97
2023-05-18T23:36:34.795Z,33.90
2023-05-18T23:39:01.415Z,33.78
2023-05-18T23:41:28.646Z,33.84
2023-05-18T23:43:55.614Z,33.79
2023-05-18T23:46:22.526Z,33.88
2023-05-18T23:48:49.174Z,33.95
2023-05-18T23:51:16.789Z,33.97
2023-05-18T23:53:46.280Z,33.86
2023-05-18T23:56:12.822Z,33.82
2023-05-18T23:58:44.355Z,33.96
